Time;durP1;ratioP1;P1;durP2;ratioP2;P2;SDS_P1;SDS_P2;PMS_P1;PMS_P2;Temp;Humidity;BMP_temperature;BMP_pressure;BME280_temperature;BME280_humidity;BME280_pressure;Samples;Min_cycle;Max_cycle;Signal;HPM_P1;HPM_P2
2022/04/01 00:01:52;;;;;;;16.75;15.05;;;2.00;99.90;;;;;;4990339;28;20040;-80
2022/04/01 00:04:18;;;;;;;17.13;14.55;;;1.90;99.90;;;;;;4996235;28;20029;-80
2022/04/01 00:06:43;;;;;;;15.95;12.68;;;1.90;99.90;;;;;;4978449;28;20022;-80
2022/04/01 00:09:09;;;;;;;18.58;14.25;;;1.90;99.90;;;;;;4997106;28;20497;-80
2022/04/01 00:11:35;;;;;;;16.50;13.05;;;1.90;99.90;;;;;;4990177;28;20552;-79
2022/04/01 00:14:00;;;;;;;17.08;15.15;;;1.90;99.90;;;;;;4978414;28;20035;-80
2022/04/01 00:16:26;;;;;;;17.27;13.98;;;1.90;99.90;;;;;;4992446;28;20053;-78
2022/04/01 00:18:51;;;;;;;18.55;14.82;;;1.90;99.90;;;;;;4994934;28;20544;-77
2022/04/01 00:21:17;;;;;;;18.20;14.85;;;1.80;99.90;;;;;;4984394;28;20034;-77
2022/04/01 00:23:42;;;;;;;17.30;14.43;;;1.80;99.90;;;;;;4993872;28;20041;-77
2022/04/01 00:26:08;;;;;;;20.42;15.77;;;1.90;99.90;;;;;;4973890;28;20037;-77
2022/04/01 00:28:33;;;;;;;19.30;15.73;;;1.80;99.90;;;;;;4975935;28;20377;-77
2022/04/01 00:30:59;;;;;;;16.75;13.18;;;1.80;99.90;;;;;;4977642;28;20545;-79
2022/04/01 00:33:24;;;;;;;18.10;13.77;;;1.80;99.90;;;;;;4974441;28;20426;-79
2022/04/01 00:35:50;;;;;;;17.10;14.73;;;1.80;99.90;;;;;;4974617;28;20040;-77
2022/04/01 00:38:16;;;;;;;14.93;11.68;;;1.70;99.90;;;;;;4989248;28;20053;-77
2022/04/01 00:40:41;;;;;;;14.35;11.38;;;1.80;99.90;;;;;;4975276;28;20037;-77
2022/04/01 00:43:07;;;;;;;13.63;11.50;;;1.80;99.90;;;;;;4975985;28;20030;-77
2022/04/01 00:45:32;;;;;;;14.32;11.60;;;1.70;99.90;;;;;;4988629;28;20068;-77
2022/04/01 00:48:02;;;;;;;14.85;12.93;;;1.80;99.90;;;;;;4990748;28;20025;-77
2022/04/01 00:50:29;;;;;;;14.80;11.63;;;1.70;99.90;;;;;;4994797;28;20029;-77
2022/04/01 00:52:54;;;;;;;13.70;11.18;;;1.70;99.90;;;;;;4994136;28;20140;-77
2022/04/01 00:55:20;;;;;;;14.90;13.40;;;1.70;99.90;;;;;;4975836;28;20038;-77
2022/04/01 00:57:45;;;;;;;13.38;11.68;;;1.60;99.90;;;;;;4994265;28;20030;-77
2022/04/01 01:00:12;;;;;;;14.40;10.57;;;1.70;99.90;;;;;;4976048;28;20030;-79
2022/04/01 01:02:39;;;;;;;13.40;11.93;;;1.60;99.90;;;;;;4980840;28;20034;-77
2022/04/01 01:05:05;;;;;;;15.90;11.60;;;1.70;99.90;;;;;;4993489;28;20112;-77
2022/04/01 01:07:30;;;;;;;13.57;11.77;;;1.60;99.90;;;;;;4992453;28;20580;-77
2022/04/01 01:09:56;;;;;;;14.32;12.90;;;1.70;99.90;;;;;;4976038;28;20029;-77
2022/04/01 01:12:24;;;;;;;16.70;13.50;;;1.60;99.90;;;;;;4990354;28;20120;-77
2022/04/01 01:14:49;;;;;;;17.77;15.90;;;1.60;99.90;;;;;;4974507;28;20084;-77
2022/04/01 01:17:15;;;;;;;17.80;14.65;;;1.60;99.90;;;;;;4972726;28;20657;-77
2022/04/01 01:19:41;;;;;;;21.55;14.27;;;1.60;99.90;;;;;;4986607;28;20061;-77
2022/04/01 01:22:07;;;;;;;18.70;14.75;;;1.60;99.90;;;;;;4975209;28;20037;-78
2022/04/01 01:24:34;;;;;;;15.68;13.98;;;1.60;99.90;;;;;;4990478;28;20052;-77
2022/04/01 01:26:59;;;;;;;15.77;13.07;;;1.60;99.90;;;;;;4989389;28;20464;-77
2022/04/01 01:29:27;;;;;;;16.73;13.60;;;1.60;99.90;;;;;;4974403;28;20034;-77
2022/04/01 01:31:54;;;;;;;18.63;12.95;;;1.60;99.90;;;;;;4987101;28;20034;-77
2022/04/01 01:34:20;;;;;;;18.83;13.27;;;1.60;99.90;;;;;;4986885;28;20125;-77
2022/04/01 01:36:46;;;;;;;14.45;12.88;;;1.60;99.90;;;;;;4992172;28;20059;-79
2022/04/01 01:39:11;;;;;;;18.08;14.38;;;1.50;99.90;;;;;;4978162;28;20026;-77
2022/04/01 01:41:37;;;;;;;18.73;14.18;;;1.50;99.90;;;;;;4970890;28;20042;-77
2022/04/01 01:44:04;;;;;;;17.77;15.95;;;1.50;99.90;;;;;;4987181;28;20036;-77
2022/04/01 01:46:30;;;;;;;20.90;16.50;;;1.40;99.90;;;;;;4977025;28;20146;-77
2022/04/01 01:48:55;;;;;;;22.30;16.20;;;1.40;99.90;;;;;;4993111;28;20563;-77
2022/04/01 01:56:49;;;;;;;15.75;9.77;;;1.30;99.90;;;;;;5009452;28;20040;-77
2022/04/01 01:59:14;;;;;;;15.73;12.13;;;1.30;99.90;;;;;;4995502;28;20532;-77
2022/04/01 02:01:40;;;;;;;18.20;11.82;;;1.20;99.90;;;;;;4997371;28;20045;-77
2022/04/01 02:04:06;;;;;;;16.15;11.20;;;1.30;99.90;;;;;;4991056;28;20034;-77
2022/04/01 02:06:32;;;;;;;15.10;9.77;;;1.30;99.90;;;;;;4995930;28;20056;-77
2022/04/01 02:08:58;;;;;;;12.07;9.63;;;1.30;99.90;;;;;;5011962;28;20038;-77
2022/04/01 02:11:23;;;;;;;13.45;11.13;;;1.30;99.90;;;;;;4996208;28;20034;-79
2022/04/01 02:13:50;;;;;;;16.67;10.52;;;1.20;99.90;;;;;;5010593;28;20033;-79
2022/04/01 02:16:16;;;;;;;16.52;9.90;;;1.20;99.90;;;;;;4976793;28;20026;-79
2022/04/01 02:18:42;;;;;;;15.00;10.65;;;1.20;99.90;;;;;;4977021;28;20039;-79
2022/04/01 02:21:15;;;;;;;13.27;9.95;;;1.10;99.90;;;;;;5008807;28;20034;-79
2022/04/01 02:23:43;;;;;;;12.43;10.30;;;1.10;99.90;;;;;;5006759;28;20111;-79
2022/04/01 02:26:08;;;;;;;13.25;9.10;;;1.00;99.90;;;;;;4997239;28;20097;-79
2022/04/01 02:28:35;;;;;;;12.98;8.30;;;1.10;99.90;;;;;;4981069;28;20033;-80
2022/04/01 02:31:01;;;;;;;13.68;9.18;;;1.10;99.90;;;;;;4992400;28;20044;-80
2022/04/01 02:33:27;;;;;;;11.00;7.95;;;1.10;99.90;;;;;;4990873;28;20034;-79
2022/04/01 02:35:57;;;;;;;13.70;8.38;;;1.10;99.90;;;;;;4997582;28;20455;-80
2022/04/01 02:38:27;;;;;;;10.98;9.43;;;1.10;99.90;;;;;;5007178;28;20121;-78
2022/04/01 02:40:53;;;;;;;11.30;8.10;;;1.10;99.90;;;;;;5000185;28;20034;-78
2022/04/01 02:43:22;;;;;;;10.65;8.02;;;1.10;99.90;;;;;;5008519;28;20068;-78
2022/04/01 02:45:48;;;;;;;8.32;7.47;;;1.10;99.90;;;;;;4994731;28;20030;-78
2022/04/01 02:48:14;;;;;;;10.43;7.13;;;1.10;99.90;;;;;;5010504;28;20466;-78
2022/04/01 02:50:40;;;;;;;8.30;6.70;;;1.10;99.90;;;;;;5011575;28;20491;-78
2022/04/01 02:53:06;;;;;;;10.93;7.20;;;1.10;99.90;;;;;;4978446;28;20025;-78
2022/04/01 02:55:32;;;;;;;7.85;6.75;;;1.10;99.90;;;;;;5006136;28;20038;-78
2022/04/01 02:57:59;;;;;;;8.38;6.57;;;1.00;99.90;;;;;;4994970;28;20393;-78
2022/04/01 03:00:24;;;;;;;12.02;6.75;;;1.10;99.90;;;;;;4995208;28;20037;-78
2022/04/01 03:02:50;;;;;;;8.10;6.35;;;1.10;99.90;;;;;;5008579;28;20111;-78
2022/04/01 03:05:17;;;;;;;8.15;6.38;;;1.10;99.90;;;;;;4993521;28;20376;-78
2022/04/01 03:07:44;;;;;;;8.82;6.85;;;1.10;99.90;;;;;;5011169;28;20074;-78
2022/04/01 03:10:10;;;;;;;8.32;6.30;;;1.10;99.90;;;;;;4990663;28;20030;-78
2022/04/01 03:12:35;;;;;;;7.78;6.40;;;1.10;99.90;;;;;;4990661;28;20034;-78
2022/04/01 03:15:02;;;;;;;8.32;6.90;;;1.10;99.90;;;;;;5007644;28;20034;-78
2022/04/01 03:17:28;;;;;;;8.98;6.43;;;1.00;99.90;;;;;;4995909;28;20512;-78
2022/04/01 03:19:54;;;;;;;6.53;5.15;;;1.10;99.90;;;;;;5005457;28;20045;-78
2022/04/01 03:22:20;;;;;;;7.47;6.43;;;1.00;99.90;;;;;;5007888;28;20042;-78
2022/04/01 03:24:46;;;;;;;7.57;6.15;;;1.00;99.90;;;;;;4995745;28;20030;-78
2022/04/01 03:27:12;;;;;;;7.93;5.93;;;1.00;99.90;;;;;;5004399;28;20121;-78
2022/04/01 03:29:38;;;;;;;7.15;5.80;;;1.00;99.90;;;;;;4971077;28;20121;-78
2022/04/01 03:32:04;;;;;;;10.48;7.28;;;1.00;99.90;;;;;;4990675;28;20033;-78
2022/04/01 03:34:29;;;;;;;9.23;6.40;;;1.00;99.90;;;;;;4977430;28;20121;-78
2022/04/01 03:36:55;;;;;;;9.10;5.80;;;0.90;99.90;;;;;;4994691;28;20033;-78
2022/04/01 03:39:21;;;;;;;9.02;7.78;;;1.00;99.90;;;;;;5008867;28;20504;-78
2022/04/01 03:41:49;;;;;;;9.73;6.85;;;0.90;99.90;;;;;;4991040;28;20521;-78
2022/04/01 03:44:15;;;;;;;9.77;6.57;;;1.00;99.90;;;;;;4995170;28;20052;-78
2022/04/01 03:46:48;;;;;;;9.05;7.13;;;1.00;99.90;;;;;;4991802;28;20029;-78
2022/04/01 03:49:17;;;;;;;11.00;7.97;;;1.00;99.90;;;;;;5009999;28;20033;-78
2022/04/01 03:51:43;;;;;;;12.55;7.72;;;0.90;99.90;;;;;;4993781;28;20121;-78
2022/04/01 03:54:10;;;;;;;9.07;7.43;;;0.90;99.90;;;;;;4992266;28;20120;-78
2022/04/01 03:56:36;;;;;;;10.48;7.22;;;0.90;99.90;;;;;;4991566;28;20081;-78
2022/04/01 03:59:08;;;;;;;11.65;9.02;;;0.90;99.90;;;;;;4991748;28;20034;-78
2022/04/01 04:01:34;;;;;;;11.38;7.60;;;0.90;99.90;;;;;;5003660;28;20053;-78
2022/04/01 04:04:00;;;;;;;13.38;9.25;;;0.90;99.90;;;;;;4995736;28;20034;-78
2022/04/01 04:06:26;;;;;;;11.63;8.50;;;1.00;99.90;;;;;;4993790;28;20037;-78
2022/04/01 04:08:58;;;;;;;11.13;9.10;;;1.00;99.90;;;;;;4993841;28;20044;-78
2022/04/01 04:11:25;;;;;;;11.18;8.13;;;0.90;99.90;;;;;;5006259;28;20037;-78
2022/04/01 04:13:55;;;;;;;10.73;8.02;;;0.90;99.90;;;;;;4972555;28;20389;-78
2022/04/01 04:16:27;;;;;;;10.00;7.30;;;0.90;99.90;;;;;;5002023;28;20036;-78
2022/04/01 04:18:56;;;;;;;10.68;7.43;;;1.00;99.90;;;;;;5006459;28;20148;-78
2022/04/01 04:21:32;;;;;;;9.13;6.35;;;0.90;99.90;;;;;;4988514;28;20049;-78
2022/04/01 04:23:58;;;;;;;7.10;5.50;;;0.90;99.90;;;;;;4988299;28;20031;-78
2022/04/01 04:26:32;;;;;;;7.97;6.45;;;0.90;99.90;;;;;;4993324;28;20034;-78
2022/04/01 04:29:18;;;;;;;8.43;5.63;;;0.90;99.90;;;;;;4991703;28;20049;-79
2022/04/01 04:31:59;;;;;;;5.53;4.43;;;0.90;99.90;;;;;;5010909;28;20048;-78
2022/04/01 04:34:31;;;;;;;9.30;5.88;;;0.90;99.90;;;;;;5010245;28;20037;-78
2022/04/01 04:36:56;;;;;;;7.43;5.88;;;0.80;99.90;;;;;;5009300;28;20449;-79
2022/04/01 04:39:32;;;;;;;8.15;6.05;;;0.90;99.90;;;;;;4994472;28;20041;-79
2022/04/01 04:42:01;;;;;;;7.35;5.82;;;0.90;99.90;;;;;;4989181;28;20120;-78
2022/04/01 04:44:28;;;;;;;7.50;5.85;;;0.80;99.90;;;;;;4971186;28;20034;-79
2022/04/01 04:46:57;;;;;;;7.07;6.13;;;0.80;99.90;;;;;;4971001;28;20052;-79
2022/04/01 04:49:23;;;;;;;8.25;6.32;;;0.80;99.90;;;;;;4978998;28;20481;-79
2022/04/01 04:51:49;;;;;;;9.13;6.18;;;0.80;99.90;;;;;;4988941;28;20034;-78
2022/04/01 04:54:15;;;;;;;11.05;8.52;;;0.80;99.90;;;;;;4979859;28;20037;-78
2022/04/01 04:56:41;;;;;;;10.77;6.57;;;0.70;99.90;;;;;;4975951;28;20042;-79
2022/04/01 04:59:07;;;;;;;11.30;7.88;;;0.70;99.90;;;;;;4990395;28;20045;-79
2022/04/01 05:01:38;;;;;;;9.35;7.03;;;0.70;99.90;;;;;;4989735;28;20042;-78
2022/04/01 05:04:15;;;;;;;7.38;5.70;;;0.70;99.90;;;;;;4986510;28;20117;-79
2022/04/01 05:07:08;;;;;;;8.50;7.05;;;0.70;99.90;;;;;;5005205;28;20026;-78
2022/04/01 05:09:45;;;;;;;7.10;6.15;;;0.70;99.90;;;;;;4975456;28;20117;-78
2022/04/01 05:12:25;;;;;;;8.00;7.20;;;0.80;99.90;;;;;;4988367;28;20112;-79
2022/04/01 05:15:01;;;;;;;10.68;7.75;;;0.80;99.90;;;;;;4992328;28;20503;-78
2022/04/01 05:17:29;;;;;;;;;;;0.70;99.90;;;;;;5008478;28;20033;-80
2022/04/01 05:19:59;;;;;;;7.70;6.15;;;0.70;99.90;;;;;;4984334;28;19975;-80
2022/04/01 05:22:37;;;;;;;7.97;7.05;;;0.70;99.90;;;;;;4966188;28;20833;-80
2022/04/01 05:25:04;;;;;;;8.38;6.57;;;0.70;99.90;;;;;;4972493;28;20182;-80
2022/04/01 05:27:30;;;;;;;7.28;6.20;;;0.70;99.90;;;;;;5005711;28;20040;-80
2022/04/01 05:30:16;;;;;;;6.80;5.88;;;0.70;99.90;;;;;;4991038;28;20033;-81
2022/04/01 05:33:06;;;;;;;8.80;7.32;;;0.70;99.90;;;;;;4980708;28;20034;-80
2022/04/01 05:35:34;;;;;;;12.05;6.20;;;0.70;99.90;;;;;;4994360;28;20034;-80
2022/04/01 05:38:00;;;;;;;8.68;6.13;;;0.70;99.90;;;;;;5002552;28;20173;-81
2022/04/01 05:40:27;;;;;;;7.68;6.10;;;0.70;99.90;;;;;;4975697;28;20030;-80
2022/04/01 05:42:53;;;;;;;8.52;5.97;;;0.70;99.90;;;;;;4992100;28;20042;-80
2022/04/01 05:45:20;;;;;;;9.13;6.80;;;0.80;99.90;;;;;;4989131;28;20484;-80
2022/04/01 05:47:46;;;;;;;7.00;6.30;;;0.70;99.90;;;;;;4972614;28;20032;-80
2022/04/01 05:50:12;;;;;;;8.60;6.47;;;0.70;99.90;;;;;;4972789;28;20049;-80
2022/04/01 05:52:37;;;;;;;8.10;6.90;;;0.70;99.90;;;;;;4986974;28;20034;-80
2022/04/01 05:55:03;;;;;;;7.80;6.88;;;0.70;99.90;;;;;;5001194;28;20037;-80
2022/04/01 05:57:29;;;;;;;5.95;5.30;;;0.70;99.90;;;;;;4970250;28;20030;-80
2022/04/01 05:59:54;;;;;;;19.88;5.95;;;0.70;99.90;;;;;;4994058;28;20397;-80
2022/04/01 06:02:44;;;;;;;6.82;5.47;;;0.70;99.90;;;;;;4992887;28;20374;-81
2022/04/01 06:05:21;;;;;;;13.23;6.40;;;0.70;99.90;;;;;;4996984;28;20172;-81
2022/04/01 06:08:11;;;;;;;7.03;5.40;;;0.80;99.90;;;;;;4990996;28;20481;-80
2022/04/01 06:10:57;;;;;;;6.13;4.90;;;0.70;99.90;;;;;;4992430;28;20037;-80
2022/04/01 06:13:33;;;;;;;8.25;4.95;;;0.70;99.90;;;;;;5002327;28;20344;-80
2022/04/01 06:16:03;;;;;;;7.00;4.50;;;0.60;99.90;;;;;;4988466;28;20034;-81
2022/04/01 06:18:47;;;;;;;7.55;5.75;;;0.60;99.90;;;;;;5004333;28;20089;-80
2022/04/01 06:21:20;;;;;;;6.35;4.97;;;0.70;99.90;;;;;;4993865;28;20046;-80
2022/04/01 06:23:50;;;;;;;6.35;5.15;;;0.70;99.90;;;;;;4963550;28;20124;-81
2022/04/01 06:26:16;;;;;;;5.93;4.50;;;0.70;99.90;;;;;;4992653;28;20080;-80
2022/04/01 06:28:50;;;;;;;7.22;4.85;;;0.60;99.90;;;;;;4998377;28;20530;-80
2022/04/01 06:31:16;;;;;;;5.15;4.60;;;0.70;99.90;;;;;;4999921;28;20113;-80
2022/04/01 06:33:49;;;;;;;5.75;4.72;;;0.70;99.90;;;;;;4965816;28;20109;-80
2022/04/01 06:36:24;;;;;;;4.70;3.92;;;0.60;99.90;;;;;;4973870;28;20732;-79
2022/04/01 06:38:59;;;;;;;6.30;4.73;;;0.70;99.90;;;;;;4976708;28;20045;-80
2022/04/01 06:41:29;;;;;;;9.13;4.22;;;0.70;99.90;;;;;;4986828;28;20105;-80
2022/04/01 06:43:55;;;;;;;5.13;4.40;;;0.70;99.90;;;;;;4988493;28;20562;-80
2022/04/01 06:46:20;;;;;;;6.05;4.07;;;0.70;99.90;;;;;;4998404;28;20030;-82
2022/04/01 06:48:46;;;;;;;6.88;4.60;;;0.70;99.90;;;;;;4978733;28;20393;-80
2022/04/01 06:51:13;;;;;;;5.57;4.50;;;0.80;99.90;;;;;;5005163;28;20397;-80
2022/04/01 06:53:39;;;;;;;5.50;4.30;;;0.70;99.90;;;;;;4995845;28;20030;-80
2022/04/01 06:56:04;;;;;;;5.28;4.25;;;0.80;99.90;;;;;;4988893;28;20024;-80
2022/04/01 06:58:32;;;;;;;5.97;4.45;;;0.70;99.90;;;;;;5004416;28;20044;-80
2022/04/01 07:00:57;;;;;;;5.18;3.90;;;0.70;99.90;;;;;;5009158;28;20029;-81
2022/04/01 07:03:24;;;;;;;6.82;4.60;;;0.80;99.90;;;;;;4966522;28;20029;-80
2022/04/01 07:05:51;;;;;;;5.95;4.75;;;0.80;99.90;;;;;;4975943;28;20053;-80
2022/04/01 07:08:16;;;;;;;10.55;4.95;;;0.90;99.90;;;;;;4976685;28;20038;-80
2022/04/01 07:10:42;;;;;;;7.22;4.32;;;0.80;99.90;;;;;;4974929;28;20034;-81
2022/04/01 07:13:10;;;;;;;5.82;4.35;;;0.90;99.90;;;;;;4991248;28;20029;-80
2022/04/01 07:15:35;;;;;;;5.18;4.22;;;0.90;99.90;;;;;;4997778;28;20034;-80
2022/04/01 07:18:01;;;;;;;6.38;5.03;;;0.80;99.90;;;;;;4978622;28;20038;-80
2022/04/01 07:20:27;;;;;;;4.45;3.90;;;0.90;99.90;;;;;;4979548;28;20516;-81
2022/04/01 07:22:53;;;;;;;4.13;3.70;;;0.90;99.90;;;;;;4979224;28;20029;-81
2022/04/01 07:25:18;;;;;;;6.18;4.40;;;0.90;99.90;;;;;;4996709;28;20030;-80
2022/04/01 07:27:44;;;;;;;5.30;3.33;;;0.90;99.90;;;;;;5006857;28;20409;-81
2022/04/01 07:30:10;;;;;;;5.65;4.00;;;0.90;99.90;;;;;;5008231;28;20168;-81
2022/04/01 07:32:36;;;;;;;5.07;4.50;;;0.90;99.90;;;;;;5008184;28;20034;-81
2022/04/01 07:35:03;;;;;;;5.90;3.70;;;1.00;99.90;;;;;;4972258;28;20042;-82
2022/04/01 07:37:29;;;;;;;5.55;4.68;;;1.00;99.90;;;;;;5007393;28;20030;-82
2022/04/01 07:39:57;;;;;;;6.32;4.03;;;1.00;99.90;;;;;;4978669;28;20026;-81
2022/04/01 07:42:23;;;;;;;5.88;4.10;;;1.00;99.90;;;;;;5007910;28;20497;-81
2022/04/01 07:44:49;;;;;;;6.45;4.35;;;1.00;99.90;;;;;;4978721;28;20037;-81
2022/04/01 07:47:14;;;;;;;7.65;4.03;;;1.00;99.90;;;;;;4972288;28;20038;-82
2022/04/01 07:49:43;;;;;;;7.90;4.70;;;1.00;99.90;;;;;;4974088;28;20064;-82
2022/04/01 07:52:09;;;;;;;5.20;3.95;;;1.10;99.90;;;;;;4974404;28;20053;-81
2022/04/01 07:54:35;;;;;;;5.15;3.90;;;1.00;99.90;;;;;;4990768;28;20465;-82
2022/04/01 07:57:03;;;;;;;5.53;4.55;;;1.10;99.90;;;;;;4993858;28;20034;-82
2022/04/01 07:59:29;;;;;;;3.95;3.25;;;1.00;99.90;;;;;;4993195;28;20034;-82
2022/04/01 08:01:55;;;;;;;4.00;3.60;;;1.00;99.90;;;;;;4976519;28;20029;-81
2022/04/01 08:04:20;;;;;;;4.72;3.85;;;1.10;99.90;;;;;;5010053;28;20033;-82
2022/04/01 08:06:46;;;;;;;4.93;3.63;;;1.10;99.90;;;;;;4993546;28;20049;-82
2022/04/01 08:09:11;;;;;;;4.80;3.83;;;1.10;99.90;;;;;;5007401;28;20048;-82
2022/04/01 08:11:37;;;;;;;6.68;3.70;;;1.20;99.90;;;;;;4995035;28;20080;-82
2022/04/01 08:14:02;;;;;;;6.60;3.65;;;1.20;99.90;;;;;;4986810;28;20397;-82
2022/04/01 08:16:28;;;;;;;8.63;3.90;;;1.10;99.90;;;;;;4987760;28;20038;-81
2022/04/01 08:18:54;;;;;;;5.32;3.65;;;1.20;99.90;;;;;;5010205;28;20049;-82
2022/04/01 08:21:19;;;;;;;4.80;3.90;;;1.10;99.90;;;;;;4993379;28;20064;-81
2022/04/01 08:23:45;;;;;;;6.10;4.10;;;1.20;99.90;;;;;;5009922;28;20041;-81
2022/04/01 08:26:12;;;;;;;4.28;3.88;;;1.20;99.90;;;;;;4971750;28;20025;-82
2022/04/01 08:28:38;;;;;;;4.72;3.67;;;1.20;99.90;;;;;;4996775;28;20033;-82
2022/04/01 08:31:04;;;;;;;4.57;4.18;;;1.10;99.90;;;;;;4990537;28;20374;-81
2022/04/01 08:33:29;;;;;;;5.43;4.35;;;1.10;99.90;;;;;;4973993;28;20040;-81
2022/04/01 08:35:56;;;;;;;8.18;3.60;;;1.20;99.90;;;;;;5011198;28;20026;-81
2022/04/01 08:38:22;;;;;;;6.20;4.43;;;1.20;99.90;;;;;;4983740;28;20061;-81
2022/04/01 08:40:48;;;;;;;7.13;3.92;;;1.20;99.90;;;;;;4990792;28;20084;-82
2022/04/01 08:43:22;;;;;;;4.93;4.25;;;1.20;99.90;;;;;;4994069;28;20448;-81
2022/04/01 08:45:50;;;;;;;5.57;4.18;;;1.20;99.90;;;;;;4996849;28;20026;-81
2022/04/01 08:48:15;;;;;;;4.80;3.85;;;1.20;99.90;;;;;;4986624;28;20026;-81
2022/04/01 08:50:41;;;;;;;7.10;4.35;;;1.20;99.90;;;;;;4989430;28;20026;-81
2022/04/01 08:53:07;;;;;;;5.43;4.28;;;1.30;99.90;;;;;;4990824;28;20021;-81
2022/04/01 08:55:33;;;;;;;5.28;3.72;;;1.30;99.90;;;;;;4975768;28;20606;-82
2022/04/01 08:58:08;;;;;;;6.30;4.05;;;1.30;99.90;;;;;;4988843;28;20033;-81
2022/04/01 09:00:33;;;;;;;6.70;3.60;;;1.40;99.90;;;;;;5003592;28;20038;-81
2022/04/01 09:03:01;;;;;;;5.85;3.42;;;1.40;99.90;;;;;;4994954;28;20030;-81
2022/04/01 09:05:26;;;;;;;4.50;3.47;;;1.40;99.90;;;;;;4976365;28;20041;-81
2022/04/01 09:08:05;;;;;;;4.60;3.20;;;1.40;99.90;;;;;;4993573;28;20030;-81
2022/04/01 09:10:31;;;;;;;6.25;3.40;;;1.40;99.90;;;;;;4975540;28;20030;-81
2022/04/01 09:12:57;;;;;;;4.65;3.72;;;1.40;99.90;;;;;;4988928;28;20029;-81
2022/04/01 09:15:24;;;;;;;8.32;4.18;;;1.50;99.90;;;;;;5008392;28;20100;-81
2022/04/01 09:17:50;;;;;;;4.07;3.67;;;1.50;99.90;;;;;;4978511;28;20061;-79
2022/04/01 09:20:16;;;;;;;6.10;4.03;;;1.50;99.90;;;;;;5003528;28;20046;-79
2022/04/01 09:22:43;;;;;;;6.13;3.67;;;1.60;99.90;;;;;;4973549;28;20430;-79
2022/04/01 09:25:10;;;;;;;4.80;3.55;;;1.60;99.90;;;;;;4975322;28;20470;-79
2022/04/01 09:27:37;;;;;;;4.05;3.63;;;1.60;99.90;;;;;;4989380;28;20126;-78
2022/04/01 09:30:04;;;;;;;6.28;3.78;;;1.60;99.90;;;;;;4991355;28;20034;-79
2022/04/01 09:32:38;;;;;;;4.82;3.17;;;1.70;99.90;;;;;;4993015;28;20119;-78
2022/04/01 09:35:04;;;;;;;6.15;3.58;;;1.70;99.90;;;;;;4976293;28;20036;-79
2022/04/01 09:37:44;;;;;;;4.82;3.42;;;1.80;99.90;;;;;;4987742;28;20133;-78
2022/04/01 09:40:11;;;;;;;6.63;3.42;;;1.80;99.90;;;;;;4982554;28;20034;-79
2022/04/01 09:42:38;;;;;;;4.80;3.97;;;1.90;99.90;;;;;;4977535;28;20060;-79
2022/04/01 09:45:04;;;;;;;4.85;3.80;;;1.90;99.90;;;;;;4968463;28;20026;-79
2022/04/01 09:47:38;;;;;;;5.63;3.78;;;1.90;99.90;;;;;;4969886;28;20037;-80
2022/04/01 09:50:14;;;;;;;5.20;3.20;;;1.90;99.90;;;;;;4991167;28;20497;-80
2022/04/01 09:52:40;;;;;;;5.75;3.67;;;2.00;99.90;;;;;;4982239;28;20345;-80
2022/04/01 09:55:07;;;;;;;4.95;3.88;;;2.10;99.90;;;;;;4990097;28;20245;-80
2022/04/01 09:57:33;;;;;;;6.07;3.83;;;2.20;99.90;;;;;;4991203;28;20038;-80
2022/04/01 09:59:58;;;;;;;4.47;3.75;;;2.20;99.90;;;;;;4973698;28;20034;-80
2022/04/01 10:02:24;;;;;;;8.05;4.18;;;2.30;99.90;;;;;;4994415;28;20049;-80
2022/04/01 10:04:50;;;;;;;6.93;4.50;;;2.30;99.90;;;;;;4977260;28;20041;-80
2022/04/01 10:07:15;;;;;;;5.43;3.83;;;2.50;99.90;;;;;;4989371;28;20094;-80
2022/04/01 10:09:43;;;;;;;4.70;3.30;;;2.50;99.90;;;;;;4973657;28;20032;-80
2022/04/01 10:12:10;;;;;;;10.90;4.38;;;2.50;99.90;;;;;;4992486;28;20140;-80
2022/04/01 10:14:38;;;;;;;7.47;3.50;;;2.50;99.90;;;;;;4977109;28;20118;-80
2022/04/01 10:17:04;;;;;;;4.55;3.17;;;2.60;99.90;;;;;;5005431;28;20116;-80
2022/04/01 10:19:34;;;;;;;5.30;3.30;;;2.70;99.90;;;;;;4974254;28;20153;-80
2022/04/01 10:22:00;;;;;;;6.10;3.42;;;2.70;99.90;;;;;;4977356;28;20369;-80
2022/04/01 10:24:47;;;;;;;6.22;3.33;;;2.80;99.90;;;;;;4979780;28;20029;-80
2022/04/01 10:27:21;;;;;;;13.73;4.35;;;2.90;99.90;;;;;;5009404;28;20025;-80
2022/04/01 10:29:46;;;;;;;5.22;3.60;;;2.90;99.90;;;;;;4995098;28;20034;-80
2022/04/01 10:32:28;;;;;;;7.15;3.65;;;2.90;99.90;;;;;;4997168;28;20614;-80
2022/04/01 10:34:55;;;;;;;4.28;2.97;;;2.90;99.90;;;;;;5005782;28;20504;-80
2022/04/01 10:37:22;;;;;;;5.32;3.55;;;2.90;99.90;;;;;;5007349;28;20038;-80
2022/04/01 10:39:54;;;;;;;7.53;4.07;;;2.90;99.90;;;;;;4995525;28;20509;-80
2022/04/01 10:42:30;;;;;;;6.57;4.40;;;2.90;99.90;;;;;;4991905;28;25621;-80
2022/04/01 10:44:57;;;;;;;5.55;4.07;;;2.90;99.90;;;;;;4990798;28;20038;-80
2022/04/01 10:51:36;;;;;;;4.78;3.80;;;2.90;99.90;;;;;;4992850;28;20033;-80
2022/04/01 10:53:41;;;;;;;7.05;4.32;;;3.10;99.90;;;;;;5010228;28;20087;-80
2022/04/01 10:56:23;;;;;;;6.65;4.80;;;3.30;99.90;;;;;;4989386;28;20092;-80
2022/04/01 10:59:16;;;;;;;18.42;4.85;;;3.40;99.90;;;;;;5001926;28;20387;-80
2022/04/01 11:01:53;;;;;;;8.65;4.00;;;3.40;99.90;;;;;;4990714;28;20061;-79
2022/04/01 11:04:19;;;;;;;5.80;4.13;;;3.40;99.90;;;;;;5010049;28;20034;-80
2022/04/01 11:07:02;;;;;;;5.63;4.72;;;3.40;99.90;;;;;;5014815;28;20034;-80
2022/04/01 11:09:41;;;;;;;5.65;4.35;;;3.30;99.90;;;;;;4989867;28;20033;-81
2022/04/01 11:12:16;;;;;;;5.65;4.25;;;3.30;99.90;;;;;;5008352;28;20184;-80
2022/04/01 11:14:59;;;;;;;6.57;4.15;;;3.30;99.90;;;;;;5009919;28;20277;-80
2022/04/01 11:17:26;;;;;;;7.47;4.15;;;3.30;99.90;;;;;;5006609;28;20038;-78
2022/04/01 11:20:01;;;;;;;6.68;4.85;;;3.20;99.90;;;;;;4994809;28;20493;-79
2022/04/01 11:22:53;;;;;;;4.93;4.43;;;3.20;99.90;;;;;;4985565;28;20026;-80
2022/04/01 11:25:24;;;;;;;7.93;4.03;;;3.10;99.90;;;;;;5007214;28;20113;-80
2022/04/01 11:27:56;;;;;;;7.85;4.65;;;3.00;99.90;;;;;;5013333;28;20070;-80
2022/04/01 11:30:24;;;;;;;6.00;4.80;;;2.90;99.90;;;;;;5008598;28;20435;-80
2022/04/01 11:32:53;;;;;;;11.60;5.13;;;2.80;99.90;;;;;;4991470;28;20042;-80
2022/04/01 11:35:22;;;;;;;14.98;5.50;;;2.90;99.90;;;;;;5006510;28;20130;-79
2022/04/01 11:37:47;;;;;;;8.15;5.25;;;2.70;99.90;;;;;;4975520;28;20038;-80
2022/04/01 11:40:13;;;;;;;9.75;6.22;;;2.70;99.90;;;;;;4975177;28;20461;-80
2022/04/01 11:42:49;;;;;;;7.15;5.30;;;2.70;99.90;;;;;;5011081;28;20042;-80
2022/04/01 11:45:15;;;;;;;;;;;2.70;99.90;;;;;;5005544;28;20501;-80
2022/04/01 11:47:41;;;;;;;7.17;4.37;;;2.70;99.90;;;;;;5015680;28;19920;-79
2022/04/01 11:50:08;;;;;;;6.53;5.20;;;2.60;99.90;;;;;;4976109;28;20033;-79
2022/04/01 11:52:40;;;;;;;7.22;6.47;;;2.60;99.90;;;;;;4982118;28;20099;-80
2022/04/01 11:55:15;;;;;;;8.98;5.97;;;2.50;99.90;;;;;;4979603;28;20029;-80
2022/04/01 11:57:41;;;;;;;8.43;5.90;;;2.50;99.90;;;;;;4991396;28;20034;-80
2022/04/01 12:00:16;;;;;;;8.27;6.53;;;2.40;99.90;;;;;;4991658;28;20485;-79
2022/04/01 12:02:43;;;;;;;8.93;6.07;;;2.40;99.90;;;;;;5011679;28;20053;-80
2022/04/01 12:05:09;;;;;;;9.95;7.15;;;2.40;99.90;;;;;;5007245;28;20119;-79
2022/04/01 12:10:22;;;;;;;8.90;6.30;;;2.40;99.90;;;;;;5003850;28;20088;-79
2022/04/01 12:13:00;;;;;;;8.73;6.13;;;2.40;99.90;;;;;;4992775;28;20042;-80
2022/04/01 12:15:38;;;;;;;10.50;7.10;;;2.40;99.90;;;;;;5004800;28;20145;-79
2022/04/01 12:18:09;;;;;;;11.05;7.90;;;2.40;99.90;;;;;;5005680;28;20069;-80
2022/04/01 12:20:38;;;;;;;9.73;6.70;;;2.40;99.90;;;;;;4975833;28;20046;-79
2022/04/01 12:23:05;;;;;;;8.55;6.85;;;2.30;99.90;;;;;;4985047;28;20528;-80
2022/04/01 12:25:32;;;;;;;12.52;6.97;;;2.20;99.90;;;;;;5010380;28;20053;-80
2022/04/01 12:28:02;;;;;;;11.88;7.40;;;2.20;99.90;;;;;;4993846;28;20038;-80
2022/04/01 12:30:32;;;;;;;8.82;7.35;;;2.30;99.90;;;;;;4991838;28;20414;-80
2022/04/01 12:33:02;;;;;;;10.95;6.90;;;2.30;99.90;;;;;;4993448;28;20033;-80
2022/04/01 12:35:28;;;;;;;11.98;6.78;;;2.30;99.90;;;;;;5009170;28;20034;-80
2022/04/01 12:38:04;;;;;;;12.35;6.82;;;2.20;99.90;;;;;;5012203;28;20410;-80
2022/04/01 12:40:44;;;;;;;12.48;7.35;;;2.10;99.90;;;;;;4982650;28;20038;-80
2022/04/01 12:43:47;;;;;;;10.15;6.88;;;2.00;99.90;;;;;;5011223;28;20515;-80
2022/04/01 12:46:14;;;;;;;10.40;6.75;;;2.00;99.90;;;;;;5011978;28;20599;-80
2022/04/01 12:48:53;;;;;;;11.02;7.07;;;2.00;99.90;;;;;;4996377;28;20135;-81
2022/04/01 12:51:35;;;;;;;10.13;6.35;;;2.00;99.90;;;;;;5007327;28;20041;-80
2022/04/01 12:54:02;;;;;;;9.68;7.22;;;2.00;99.90;;;;;;5007400;28;20065;-80
2022/04/01 12:56:33;;;;;;;11.82;7.90;;;2.00;99.90;;;;;;5009763;28;20461;-81
2022/04/01 12:59:10;;;;;;;11.50;7.22;;;2.10;99.90;;;;;;5006186;28;20038;-80
2022/04/01 13:01:37;;;;;;;12.90;6.57;;;2.20;99.90;;;;;;4994616;28;20045;-81
2022/04/01 13:04:03;;;;;;;12.15;8.65;;;2.20;99.90;;;;;;5003698;28;20045;-81
2022/04/01 13:06:29;;;;;;;10.25;7.38;;;2.20;99.90;;;;;;4992673;28;20635;-81
2022/04/01 13:09:03;;;;;;;12.18;6.70;;;2.20;99.90;;;;;;4982636;28;20128;-81
2022/04/01 13:11:39;;;;;;;9.98;6.85;;;2.10;99.90;;;;;;4986254;28;20555;-81
2022/04/01 13:14:05;;;;;;;15.50;7.55;;;2.20;99.90;;;;;;4989114;28;20038;-81